Time;durP1;ratioP1;P1;durP2;ratioP2;P2;SDS_P1;SDS_P2;PMS_P1;PMS_P2;Temp;Humidity;BMP_temperature;BMP_pressure;BME280_temperature;BME280_humidity;BME280_pressure;Samples;Min_cycle;Max_cycle;Signal;HPM_P1;HPM_P2
2021/07/18 00:00:16;;;;;;;;;7.50;5.00;;;;;;;;5014164;28;45711;-77
2021/07/18 00:02:42;;;;;;;;;4.25;4.00;;;;;;;;5007911;28;45333;-76
2021/07/18 00:05:07;;;;;;;;;7.00;6.00;;;;;;;;5006462;28;45543;-75
2021/07/18 00:07:33;;;;;;;;;4.25;4.25;;;;;;;;5007086;28;46159;-75
2021/07/18 00:09:58;;;;;;;;;7.25;5.75;;;;;;;;5003796;28;45608;-76
2021/07/18 00:12:24;;;;;;;;;5.75;4.25;;;;;;;;4991540;28;45694;-76
2021/07/18 00:14:49;;;;;;;;;7.67;5.00;;;;;;;;5006482;28;45487;-75
2021/07/18 00:17:14;;;;;;;;;5.67;5.67;;;;;;;;5010962;28;46038;-76
2021/07/18 00:19:39;;;;;;;;;5.00;4.50;;;;;;;;5001181;28;45456;-75
2021/07/18 00:22:05;;;;;;;;;5.25;5.25;;;;;;;;5005500;28;45452;-75
2021/07/18 00:24:31;;;;;;;;;6.50;4.75;;;;;;;;5011615;28;45752;-75
2021/07/18 00:26:56;;;;;;;;;8.00;5.00;;;;;;;;4991754;28;47395;-75
2021/07/18 00:29:21;;;;;;;;;6.00;5.67;;;;;;;;5006239;28;46442;-76
2021/07/18 00:31:46;;;;;;;;;6.25;6.25;;;;;;;;5011227;28;45375;-75
2021/07/18 00:34:11;;;;;;;;;8.33;5.33;;;;;;;;5006227;28;45408;-75
2021/07/18 00:36:37;;;;;;;;;5.00;5.00;;;;;;;;5008901;28;46500;-75
2021/07/18 00:39:02;;;;;;;;;5.00;4.50;;;;;;;;5008536;28;45492;-76
2021/07/18 00:41:28;;;;;;;;;7.00;5.50;;;;;;;;5000755;28;45419;-75
2021/07/18 00:43:53;;;;;;;;;5.00;5.00;;;;;;;;4987531;28;45738;-77
2021/07/18 00:46:18;;;;;;;;;5.00;5.00;;;;;;;;5006423;28;46240;-75
2021/07/18 00:48:43;;;;;;;;;5.00;4.00;;;;;;;;4985613;28;45513;-75
2021/07/18 00:51:08;;;;;;;;;7.00;5.00;;;;;;;;5000834;28;45344;-75
2021/07/18 00:53:34;;;;;;;;;3.00;3.00;;;;;;;;5006066;28;45822;-75
2021/07/18 00:55:59;;;;;;;;;5.33;4.00;;;;;;;;5007876;28;46364;-74
2021/07/18 00:58:28;;;;;;;;;6.67;6.67;;;;;;;;5005695;28;45585;-75
2021/07/18 01:00:53;;;;;;;;;6.00;6.00;;;;;;;;5007787;28;45672;-76
2021/07/18 01:03:18;;;;;;;;;7.50;6.00;;;;;;;;5010965;28;45568;-75
2021/07/18 01:05:44;;;;;;;;;5.25;4.00;;;;;;;;5005844;28;45480;-75
2021/07/18 01:08:10;;;;;;;;;7.00;5.00;;;;;;;;5006992;28;45438;-75
2021/07/18 01:10:35;;;;;;;;;7.00;5.00;;;;;;;;4994946;28;45465;-75
2021/07/18 01:13:01;;;;;;;;;7.00;5.00;;;;;;;;5000003;28;45329;-75
2021/07/18 01:15:26;;;;;;;;;6.00;6.00;;;;;;;;5009589;28;46412;-75
2021/07/18 01:17:51;;;;;;;;;5.00;5.00;;;;;;;;5010236;28;45443;-75
2021/07/18 01:20:17;;;;;;;;;6.00;4.75;;;;;;;;5006594;28;45524;-75
2021/07/18 01:22:42;;;;;;;;;8.00;6.00;;;;;;;;5005740;28;45470;-74
2021/07/18 01:25:09;;;;;;;;;8.00;5.50;;;;;;;;5008245;28;46144;-76
2021/07/18 01:27:35;;;;;;;;;5.25;4.00;;;;;;;;4991572;28;45332;-75
2021/07/18 01:30:01;;;;;;;;;8.25;5.00;;;;;;;;5002510;28;45490;-77
2021/07/18 01:32:26;;;;;;;;;8.75;5.25;;;;;;;;5001950;28;45492;-76
2021/07/18 01:34:51;;;;;;;;;6.00;6.00;;;;;;;;5008570;28;46414;-74
2021/07/18 01:37:17;;;;;;;;;8.33;4.33;;;;;;;;5015269;28;45332;-75
2021/07/18 01:39:42;;;;;;;;;8.25;7.75;;;;;;;;4994358;28;45477;-76
2021/07/18 01:42:08;;;;;;;;;8.25;5.00;;;;;;;;5020439;28;45381;-75
2021/07/18 01:44:33;;;;;;;;;6.00;6.00;;;;;;;;5002101;28;47531;-75
2021/07/18 01:46:58;;;;;;;;;4.33;4.33;;;;;;;;5008963;28;45420;-75
2021/07/18 01:49:23;;;;;;;;;6.00;6.00;;;;;;;;4982433;28;45529;-75
2021/07/18 01:51:49;;;;;;;;;6.75;6.50;;;;;;;;4996760;28;46210;-75
2021/07/18 01:54:14;;;;;;;;;8.75;6.25;;;;;;;;5014447;28;46401;-75
2021/07/18 01:56:40;;;;;;;;;8.75;5.25;;;;;;;;5000434;28;45467;-76
2021/07/18 01:59:06;;;;;;;;;10.25;6.25;;;;;;;;5011436;28;45600;-75
2021/07/18 02:01:32;;;;;;;;;5.00;5.00;;;;;;;;5009128;28;45646;-76
2021/07/18 02:03:58;;;;;;;;;4.50;4.50;;;;;;;;5015887;28;48109;-75
2021/07/18 02:06:24;;;;;;;;;4.00;4.00;;;;;;;;5006998;28;45776;-75
2021/07/18 02:08:50;;;;;;;;;6.25;5.00;;;;;;;;5006478;28;45662;-75
2021/07/18 02:11:16;;;;;;;;;11.50;7.00;;;;;;;;5020663;28;45506;-74
2021/07/18 02:13:42;;;;;;;;;8.50;5.75;;;;;;;;5011952;28;45706;-76
2021/07/18 02:16:07;;;;;;;;;5.50;5.50;;;;;;;;5004162;28;45613;-75
2021/07/18 02:18:32;;;;;;;;;7.00;5.33;;;;;;;;5018536;28;45516;-75
2021/07/18 02:20:58;;;;;;;;;7.67;6.00;;;;;;;;5015729;28;45533;-75
2021/07/18 02:23:23;;;;;;;;;8.25;6.75;;;;;;;;5019641;28;45693;-75
2021/07/18 02:25:49;;;;;;;;;6.75;6.00;;;;;;;;5017935;28;45405;-75
2021/07/18 02:28:14;;;;;;;;;7.25;6.75;;;;;;;;4996717;28;45476;-75
2021/07/18 02:30:40;;;;;;;;;7.50;6.50;;;;;;;;4997312;28;45623;-75
2021/07/18 02:33:05;;;;;;;;;12.75;8.50;;;;;;;;5018174;28;45570;-75
2021/07/18 02:35:30;;;;;;;;;10.00;8.50;;;;;;;;5001968;28;45486;-75
2021/07/18 02:37:56;;;;;;;;;11.25;7.25;;;;;;;;5007387;28;45420;-75
2021/07/18 02:40:21;;;;;;;;;7.75;6.50;;;;;;;;5006219;28;48201;-75
2021/07/18 02:42:47;;;;;;;;;8.75;6.50;;;;;;;;5005177;28;46456;-75
2021/07/18 02:45:13;;;;;;;;;11.00;8.25;;;;;;;;5009351;28;45363;-75
2021/07/18 02:47:39;;;;;;;;;8.75;8.75;;;;;;;;4997507;28;45385;-75
2021/07/18 02:50:05;;;;;;;;;11.25;6.00;;;;;;;;5014379;28;45473;-75
2021/07/18 02:52:31;;;;;;;;;8.75;8.00;;;;;;;;5007306;28;47842;-75
2021/07/18 02:54:56;;;;;;;;;7.00;6.50;;;;;;;;4999158;28;45439;-75
2021/07/18 02:57:21;;;;;;;;;11.33;7.33;;;;;;;;4997565;28;45472;-75
2021/07/18 02:59:46;;;;;;;;;7.00;7.00;;;;;;;;4983899;28;45540;-76
2021/07/18 03:02:12;;;;;;;;;7.00;6.00;;;;;;;;5017698;28;45801;-76
2021/07/18 03:04:37;;;;;;;;;7.00;7.00;;;;;;;;5000800;28;45759;-75
2021/07/18 03:07:02;;;;;;;;;6.33;6.00;;;;;;;;5019362;28;45358;-75
2021/07/18 03:09:27;;;;;;;;;6.00;5.00;;;;;;;;5001237;28;45510;-76
2021/07/18 03:11:53;;;;;;;;;7.75;6.25;;;;;;;;5017493;28;45944;-75
2021/07/18 03:14:19;;;;;;;;;8.75;6.25;;;;;;;;5004059;28;45356;-75
2021/07/18 03:16:45;;;;;;;;;9.50;6.00;;;;;;;;5014856;28;45654;-75
2021/07/18 03:19:11;;;;;;;;;9.50;7.00;;;;;;;;5018898;28;45542;-75
2021/07/18 03:21:36;;;;;;;;;8.00;6.25;;;;;;;;5005579;28;46732;-75
2021/07/18 03:24:01;;;;;;;;;5.67;5.00;;;;;;;;4999277;28;45496;-75
2021/07/18 03:26:27;;;;;;;;;7.00;7.00;;;;;;;;5007616;28;45430;-74
2021/07/18 03:28:52;;;;;;;;;7.00;6.00;;;;;;;;5014073;28;45517;-76
2021/07/18 03:31:17;;;;;;;;;9.33;6.00;;;;;;;;5015233;28;48230;-75
2021/07/18 03:33:42;;;;;;;;;8.75;7.00;;;;;;;;5016285;28;45423;-77
2021/07/18 03:36:08;;;;;;;;;5.67;5.33;;;;;;;;5014849;28;45487;-75
2021/07/18 03:38:33;;;;;;;;;8.00;6.00;;;;;;;;5018396;28;45514;-75
2021/07/18 03:40:58;;;;;;;;;7.67;7.67;;;;;;;;4999926;28;45519;-75
2021/07/18 03:43:23;;;;;;;;;11.67;5.67;;;;;;;;5016405;28;45480;-75
2021/07/18 03:45:48;;;;;;;;;5.33;5.33;;;;;;;;4999430;28;45499;-75
2021/07/18 03:48:14;;;;;;;;;6.00;6.00;;;;;;;;4978363;28;45500;-76
2021/07/18 03:50:40;;;;;;;;;8.50;6.00;;;;;;;;4989149;28;47270;-75
2021/07/18 03:53:05;;;;;;;;;9.67;7.00;;;;;;;;5007875;28;45440;-75
2021/07/18 03:55:30;;;;;;;;;9.67;6.00;;;;;;;;5011483;28;45533;-75
2021/07/18 03:57:56;;;;;;;;;7.67;6.00;;;;;;;;4997821;28;45449;-74
2021/07/18 04:00:21;;;;;;;;;10.33;6.00;;;;;;;;5009397;28;45593;-75
2021/07/18 04:02:47;;;;;;;;;7.50;5.75;;;;;;;;4997000;28;45392;-75
2021/07/18 04:05:12;;;;;;;;;7.75;6.00;;;;;;;;5006920;28;45302;-75
2021/07/18 04:07:37;;;;;;;;;7.00;6.50;;;;;;;;4982899;28;45278;-75
2021/07/18 04:10:03;;;;;;;;;5.25;4.75;;;;;;;;4995140;28;48147;-75
2021/07/18 04:12:29;;;;;;;;;9.00;7.00;;;;;;;;5009245;28;45837;-75
2021/07/18 04:14:54;;;;;;;;;9.00;4.67;;;;;;;;5004674;28;45270;-75
2021/07/18 04:17:20;;;;;;;;;8.00;6.00;;;;;;;;5017260;28;45366;-76
2021/07/18 04:19:45;;;;;;;;;5.00;4.50;;;;;;;;5011093;28;45391;-75
2021/07/18 04:22:10;;;;;;;;;8.00;5.25;;;;;;;;4982225;28;45796;-75
2021/07/18 04:24:35;;;;;;;;;12.00;6.00;;;;;;;;5004843;28;45631;-75
2021/07/18 04:27:01;;;;;;;;;9.50;7.25;;;;;;;;5008154;28;45424;-75
2021/07/18 04:29:26;;;;;;;;;7.33;5.67;;;;;;;;5005570;28;48270;-75
2021/07/18 04:31:51;;;;;;;;;7.00;5.00;;;;;;;;5000605;28;45731;-75
2021/07/18 04:34:19;;;;;;;;;6.00;6.00;;;;;;;;5010044;28;45696;-75
2021/07/18 04:36:45;;;;;;;;;7.00;6.00;;;;;;;;5014657;28;45439;-75
2021/07/18 04:39:10;;;;;;;;;7.75;6.00;;;;;;;;4995704;28;47399;-75
2021/07/18 04:41:37;;;;;;;;;6.50;6.50;;;;;;;;4999380;28;45586;-75
2021/07/18 04:44:02;;;;;;;;;7.00;5.25;;;;;;;;5014294;28;45813;-75
2021/07/18 04:46:27;;;;;;;;;9.50;7.50;;;;;;;;5017226;28;45521;-76
2021/07/18 04:48:52;;;;;;;;;6.00;6.00;;;;;;;;4996512;28;48164;-75
2021/07/18 04:51:17;;;;;;;;;6.00;5.00;;;;;;;;4986437;28;46144;-76
2021/07/18 04:53:43;;;;;;;;;6.25;6.00;;;;;;;;5010946;28;45533;-76
2021/07/18 04:56:08;;;;;;;;;6.50;6.50;;;;;;;;5001027;28;45603;-75
2021/07/18 04:58:33;;;;;;;;;8.33;4.33;;;;;;;;5002230;28;46186;-75
2021/07/18 05:00:59;;;;;;;;;6.67;6.00;;;;;;;;4999243;28;45494;-76
2021/07/18 05:03:24;;;;;;;;;9.00;7.00;;;;;;;;4979156;28;45432;-75
2021/07/18 05:05:49;;;;;;;;;7.00;6.00;;;;;;;;5010394;28;45356;-75
2021/07/18 05:08:15;;;;;;;;;9.75;8.00;;;;;;;;5005760;28;46674;-75
2021/07/18 05:10:43;;;;;;;;;10.33;6.67;;;;;;;;5007260;28;45762;-75
2021/07/18 05:13:08;;;;;;;;;4.75;3.75;;;;;;;;5004107;28;45451;-74
2021/07/18 05:15:34;;;;;;;;;5.33;5.00;;;;;;;;4998619;28;45353;-75
2021/07/18 05:18:08;;;;;;;;;8.75;6.75;;;;;;;;4997188;28;47457;-75
2021/07/18 05:20:33;;;;;;;;;8.25;6.75;;;;;;;;5015738;28;45944;-75
2021/07/18 05:22:58;;;;;;;;;6.00;5.00;;;;;;;;5016682;28;45540;-75
2021/07/18 05:25:23;;;;;;;;;9.67;7.33;;;;;;;;5015505;28;45452;-75
2021/07/18 05:27:48;;;;;;;;;9.67;7.00;;;;;;;;5007168;28;46392;-75
2021/07/18 05:30:14;;;;;;;;;7.00;7.00;;;;;;;;4995705;28;45460;-76
2021/07/18 05:32:39;;;;;;;;;6.25;6.25;;;;;;;;5006374;28;45849;-74
2021/07/18 05:35:05;;;;;;;;;7.33;7.33;;;;;;;;5010418;28;45787;-76
2021/07/18 05:37:31;;;;;;;;;8.00;8.00;;;;;;;;5009784;28;46658;-75
2021/07/18 05:39:56;;;;;;;;;8.50;7.50;;;;;;;;5010033;28;45548;-75
2021/07/18 05:42:21;;;;;;;;;8.75;6.00;;;;;;;;5021493;28;45451;-75
2021/07/18 05:44:46;;;;;;;;;7.25;6.75;;;;;;;;4999359;28;45613;-75
2021/07/18 05:47:12;;;;;;;;;7.67;6.33;;;;;;;;5007752;28;46503;-75
2021/07/18 05:49:37;;;;;;;;;10.33;6.33;;;;;;;;5012147;28;45736;-76
2021/07/18 05:52:03;;;;;;;;;8.67;5.67;;;;;;;;5017981;28;45266;-75
2021/07/18 05:54:28;;;;;;;;;8.25;6.75;;;;;;;;4998913;28;45396;-75
2021/07/18 05:56:53;;;;;;;;;8.00;6.00;;;;;;;;4994991;28;47483;-75
2021/07/18 05:59:18;;;;;;;;;8.33;6.33;;;;;;;;4998854;28;45424;-75
2021/07/18 06:01:43;;;;;;;;;8.00;6.33;;;;;;;;5011109;28;45331;-75
2021/07/18 06:04:09;;;;;;;;;7.67;4.00;;;;;;;;4997777;28;45377;-75
2021/07/18 06:06:34;;;;;;;;;7.00;6.00;;;;;;;;5015931;28;46317;-75
2021/07/18 06:08:59;;;;;;;;;8.00;6.25;;;;;;;;4998141;28;45478;-77
2021/07/18 06:11:26;;;;;;;;;9.33;6.00;;;;;;;;4982556;28;45426;-76
2021/07/18 06:13:51;;;;;;;;;6.00;5.50;;;;;;;;4998348;28;45389;-75
2021/07/18 06:16:17;;;;;;;;;7.00;6.00;;;;;;;;5019653;28;46390;-75
2021/07/18 06:18:42;;;;;;;;;7.25;6.00;;;;;;;;4982310;28;45378;-75
2021/07/18 06:21:07;;;;;;;;;6.75;6.00;;;;;;;;4993793;28;45709;-75
2021/07/18 06:23:32;;;;;;;;;6.67;6.67;;;;;;;;4989016;28;46140;-75
2021/07/18 06:25:58;;;;;;;;;7.67;6.33;;;;;;;;5021338;28;46049;-75
2021/07/18 06:28:23;;;;;;;;;5.75;5.75;;;;;;;;5005040;28;45379;-75
2021/07/18 06:30:50;;;;;;;;;5.67;5.67;;;;;;;;5015004;28;45355;-76
2021/07/18 06:33:15;;;;;;;;;6.50;5.75;;;;;;;;5018178;28;46745;-77
2021/07/18 06:35:41;;;;;;;;;6.67;6.00;;;;;;;;5017024;28;46257;-76
2021/07/18 06:38:06;;;;;;;;;9.75;5.00;;;;;;;;4998721;28;45569;-75
2021/07/18 06:40:31;;;;;;;;;6.33;5.00;;;;;;;;5002229;28;45524;-75
2021/07/18 06:42:56;;;;;;;;;7.00;5.33;;;;;;;;5020931;28;45731;-75
2021/07/18 06:45:22;;;;;;;;;6.50;6.00;;;;;;;;5011339;28;46886;-76
2021/07/18 06:47:47;;;;;;;;;7.25;6.00;;;;;;;;5001669;28;45601;-75
2021/07/18 06:50:12;;;;;;;;;3.67;3.67;;;;;;;;5011592;28;45480;-75
2021/07/18 06:52:38;;;;;;;;;6.25;5.25;;;;;;;;5018086;28;45521;-75
2021/07/18 06:55:03;;;;;;;;;5.50;5.50;;;;;;;;5017798;28;45392;-75
2021/07/18 06:57:29;;;;;;;;;5.50;5.50;;;;;;;;4997084;28;45724;-75
2021/07/18 06:59:54;;;;;;;;;4.00;4.00;;;;;;;;5004512;28;45515;-75
2021/07/18 07:02:19;;;;;;;;;6.00;6.00;;;;;;;;5004825;28;45527;-75
2021/07/18 07:04:44;;;;;;;;;4.33;3.00;;;;;;;;5014428;28;45908;-75
2021/07/18 07:07:10;;;;;;;;;4.33;4.33;;;;;;;;5016214;28;45300;-75
2021/07/18 07:09:35;;;;;;;;;5.75;4.75;;;;;;;;5015811;28;45451;-75
2021/07/18 07:12:00;;;;;;;;;7.00;7.00;;;;;;;;5019487;28;45448;-75
2021/07/18 07:14:26;;;;;;;;;4.00;4.00;;;;;;;;5014917;28;46972;-75
2021/07/18 07:16:51;;;;;;;;;5.00;4.00;;;;;;;;5001148;28;45539;-77
2021/07/18 07:19:16;;;;;;;;;4.67;4.67;;;;;;;;5016204;28;45385;-75
2021/07/18 07:21:41;;;;;;;;;6.00;4.33;;;;;;;;5014750;28;45526;-76
2021/07/18 07:24:07;;;;;;;;;6.50;5.75;;;;;;;;5014580;28;46250;-75
2021/07/18 07:26:32;;;;;;;;;6.00;5.00;;;;;;;;5006588;28;45794;-75
2021/07/18 07:28:58;;;;;;;;;5.75;5.00;;;;;;;;5019541;28;45660;-75
2021/07/18 07:31:23;;;;;;;;;5.00;5.00;;;;;;;;4999002;28;45609;-75
2021/07/18 07:33:48;;;;;;;;;4.00;4.00;;;;;;;;5017098;28;46177;-76
2021/07/18 07:36:15;;;;;;;;;7.00;5.00;;;;;;;;5008067;28;45632;-76
2021/07/18 07:38:40;;;;;;;;;4.50;4.50;;;;;;;;5022707;28;45455;-75
2021/07/18 07:41:06;;;;;;;;;5.50;4.25;;;;;;;;5011121;28;45349;-76
2021/07/18 07:43:31;;;;;;;;;5.00;4.00;;;;;;;;5014877;28;48422;-75
2021/07/18 07:45:56;;;;;;;;;4.00;4.00;;;;;;;;5016822;28;46657;-76
2021/07/18 07:48:21;;;;;;;;;5.75;4.50;;;;;;;;5000310;28;45460;-76
2021/07/18 07:50:47;;;;;;;;;4.50;4.50;;;;;;;;5005739;28;45413;-79
2021/07/18 07:53:12;;;;;;;;;4.00;4.00;;;;;;;;5011028;28;45632;-77
2021/07/18 07:55:38;;;;;;;;;4.50;3.00;;;;;;;;5011751;28;45301;-77
2021/07/18 07:58:05;;;;;;;;;4.25;4.25;;;;;;;;5014797;28;45471;-77
2021/07/18 08:00:30;;;;;;;;;4.25;3.25;;;;;;;;5010716;28;45461;-76
2021/07/18 08:02:55;;;;;;;;;6.50;4.00;;;;;;;;5007145;28;46433;-77
2021/07/18 08:05:21;;;;;;;;;7.00;4.00;;;;;;;;5009676;28;45341;-77
2021/07/18 08:07:46;;;;;;;;;5.25;4.00;;;;;;;;5011204;28;46024;-82
2021/07/18 08:10:13;;;;;;;;;6.50;4.50;;;;;;;;4996892;28;45411;-81
2021/07/18 08:12:41;;;;;;;;;4.25;4.00;;;;;;;;5020519;28;46728;-78
2021/07/18 08:15:07;;;;;;;;;4.25;4.00;;;;;;;;5010038;28;46288;-81
2021/07/18 08:17:33;;;;;;;;;4.75;4.75;;;;;;;;5017299;28;45558;-81
2021/07/18 08:19:59;;;;;;;;;3.50;3.25;;;;;;;;5003560;28;45496;-84
2021/07/18 08:22:24;;;;;;;;;7.75;3.25;;;;;;;;5003458;28;46693;-81
2021/07/18 08:24:49;;;;;;;;;3.50;3.00;;;;;;;;5010321;28;45544;-80
2021/07/18 08:27:14;;;;;;;;;3.67;3.67;;;;;;;;5006026;28;45582;-81
2021/07/18 08:29:40;;;;;;;;;2.75;2.75;;;;;;;;5026774;28;45654;-78
2021/07/18 08:32:06;;;;;;;;;4.00;4.00;;;;;;;;5008754;28;46374;-82
2021/07/18 08:34:31;;;;;;;;;3.25;3.00;;;;;;;;4993401;28;45614;-79
2021/07/18 08:36:57;;;;;;;;;4.25;4.00;;;;;;;;4990135;28;45571;-79
2021/07/18 08:39:23;;;;;;;;;6.00;3.00;;;;;;;;5007675;28;45448;-80
2021/07/18 08:41:50;;;;;;;;;3.00;3.00;;;;;;;;5005267;28;46378;-80
2021/07/18 08:44:15;;;;;;;;;4.00;4.00;;;;;;;;5015548;28;45443;-83
2021/07/18 08:46:41;;;;;;;;;4.00;2.00;;;;;;;;5010863;28;45417;-82
2021/07/18 08:49:07;;;;;;;;;5.50;3.00;;;;;;;;5011240;28;45522;-80
2021/07/18 08:51:33;;;;;;;;;3.00;3.00;;;;;;;;5005881;28;46542;-80
2021/07/18 08:53:59;;;;;;;;;2.25;2.25;;;;;;;;5001582;28;45468;-80
2021/07/18 08:56:25;;;;;;;;;4.00;4.00;;;;;;;;5007388;28;45406;-80
2021/07/18 08:58:50;;;;;;;;;2.25;2.25;;;;;;;;4995383;28;45620;-79
2021/07/18 09:01:15;;;;;;;;;3.00;2.75;;;;;;;;5021908;28;48182;-79
2021/07/18 09:03:41;;;;;;;;;4.00;2.00;;;;;;;;5023185;28;45401;-79
2021/07/18 09:06:08;;;;;;;;;4.00;3.00;;;;;;;;5002926;28;45642;-81
2021/07/18 09:08:40;;;;;;;;;2.00;2.00;;;;;;;;5015467;28;45389;-79
2021/07/18 09:13:53;;;;;;;;;3.75;2.75;;;;;;;;5010236;28;45344;-78
2021/07/18 09:16:24;;;;;;;;;4.75;1.25;;;;;;;;5012901;28;45644;-79
2021/07/18 09:18:49;;;;;;;;;3.00;3.00;;;;;;;;5013020;28;45473;-78
2021/07/18 09:21:14;;;;;;;;;3.00;3.00;;;;;;;;5011673;28;45764;-78
2021/07/18 09:23:39;;;;;;;;;2.00;2.00;;;;;;;;5013249;28;45570;-78
2021/07/18 09:26:17;;;;;;;;;2.67;2.67;;;;;;;;5006048;28;45281;-78
2021/07/18 09:28:43;;;;;;;;;2.00;2.00;;;;;;;;4991739;28;45554;-78
2021/07/18 09:31:28;;;;;;;;;2.00;2.00;;;;;;;;4994783;28;48228;-80
2021/07/18 09:34:12;;;;;;;;;3.50;3.50;;;;;;;;5012402;28;46146;-80
2021/07/18 09:36:37;;;;;;;;;3.75;3.25;;;;;;;;5005490;28;45407;-79
2021/07/18 09:39:06;;;;;;;;;2.00;2.00;;;;;;;;5013308;28;45505;-80
2021/07/18 09:41:38;;;;;;;;;2.25;2.25;;;;;;;;5013111;28;45494;-80
2021/07/18 09:44:04;;;;;;;;;3.00;3.00;;;;;;;;5015688;28;45347;-80
2021/07/18 09:46:33;;;;;;;;;2.25;2.25;;;;;;;;5012885;28;45344;-79
2021/07/18 09:49:00;;;;;;;;;3.25;2.50;;;;;;;;5016517;28;45709;-82
2021/07/18 09:51:25;;;;;;;;;4.25;3.00;;;;;;;;5013837;28;45563;-79
2021/07/18 09:54:06;;;;;;;;;1.25;1.25;;;;;;;;5005209;28;46109;-80
2021/07/18 09:56:32;;;;;;;;;2.00;2.00;;;;;;;;4993174;28;45281;-79
2021/07/18 09:58:57;;;;;;;;;3.00;3.00;;;;;;;;5000750;28;45629;-79
2021/07/18 10:01:23;;;;;;;;;2.25;2.00;;;;;;;;5011781;28;45893;-80
2021/07/18 10:03:49;;;;;;;;;3.00;2.00;;;;;;;;5014689;28;48266;-79
2021/07/18 10:06:16;;;;;;;;;2.50;2.25;;;;;;;;5012135;28;45532;-79
2021/07/18 10:08:48;;;;;;;;;1.75;1.00;;;;;;;;5022234;28;45370;-79
2021/07/18 10:11:14;;;;;;;;;3.00;3.00;;;;;;;;5010954;28;46248;-80
2021/07/18 10:13:41;;;;;;;;;3.00;3.00;;;;;;;;4995683;28;45586;-80
2021/07/18 10:16:07;;;;;;;;;3.00;2.00;;;;;;;;4998265;28;45612;-79
2021/07/18 10:18:34;;;;;;;;;5.25;4.00;;;;;;;;5012611;28;45518;-80
2021/07/18 10:21:00;;;;;;;;;2.75;2.00;;;;;;;;4993448;28;47531;-80
2021/07/18 10:23:25;;;;;;;;;3.00;3.00;;;;;;;;5014541;28;45790;-79
2021/07/18 10:25:52;;;;;;;;;3.00;2.00;;;;;;;;5012620;28;45320;-77
2021/07/18 10:28:17;;;;;;;;;2.25;2.25;;;;;;;;5012103;28;45780;-80
2021/07/18 10:30:44;;;;;;;;;4.00;4.00;;;;;;;;5007645;28;45921;-80
2021/07/18 10:33:10;;;;;;;;;5.00;3.50;;;;;;;;5011787;28;45523;-80
2021/07/18 10:35:35;;;;;;;;;2.50;2.25;;;;;;;;5013242;28;45629;-80
2021/07/18 10:38:14;;;;;;;;;3.75;2.25;;;;;;;;5013639;28;45412;-80
2021/07/18 10:40:56;;;;;;;;;4.00;3.00;;;;;;;;5011805;28;45676;-80
2021/07/18 10:43:38;;;;;;;;;3.50;3.50;;;;;;;;5010811;28;45691;-80
2021/07/18 10:46:06;;;;;;;;;3.00;3.00;;;;;;;;4998296;28;45290;-80
2021/07/18 10:48:41;;;;;;;;;2.75;2.00;;;;;;;;5011165;28;45509;-80
2021/07/18 10:51:06;;;;;;;;;4.75;4.00;;;;;;;;5012650;28;45952;-79
2021/07/18 10:53:34;;;;;;;;;3.00;3.00;;;;;;;;5011358;28;45915;-80
2021/07/18 10:56:01;;;;;;;;;4.00;3.00;;;;;;;;4996005;28;45423;-80
2021/07/18 10:58:38;;;;;;;;;5.50;4.50;;;;;;;;4996255;28;45555;-80
2021/07/18 11:01:04;;;;;;;;;4.00;3.25;;;;;;;;5010293;28;46174;-80
2021/07/18 11:03:33;;;;;;;;;3.00;3.00;;;;;;;;5012887;28;45471;-79
2021/07/18 11:06:19;;;;;;;;;5.00;4.00;;;;;;;;5012308;28;45661;-80
2021/07/18 11:09:03;;;;;;;;;4.00;4.00;;;;;;;;4995669;28;45625;-79
2021/07/18 11:11:42;;;;;;;;;4.75;4.75;;;;;;;;4995909;28;45466;-80
2021/07/18 11:14:26;;;;;;;;;4.00;4.00;;;;;;;;4996806;28;45651;-80
2021/07/18 11:16:53;;;;;;;;;4.25;4.25;;;;;;;;5000194;28;45424;-80
2021/07/18 11:19:37;;;;;;;;;6.00;6.00;;;;;;;;5012393;28;45544;-81
2021/07/18 11:22:03;;;;;;;;;6.25;4.25;;;;;;;;5011903;28;46176;-80
2021/07/18 11:24:47;;;;;;;;;4.50;3.25;;;;;;;;5010800;28;45611;-80
2021/07/18 11:27:30;;;;;;;;;5.00;3.75;;;;;;;;4995491;28;45512;-80
2021/07/18 11:29:57;;;;;;;;;5.75;4.50;;;;;;;;5012372;28;45655;-80
2021/07/18 11:32:23;;;;;;;;;5.75;4.75;;;;;;;;4994685;28;48236;-81
2021/07/18 11:34:48;;;;;;;;;6.00;5.00;;;;;;;;5012325;28;45557;-81
2021/07/18 11:37:14;;;;;;;;;3.00;3.00;;;;;;;;5011178;28;45432;-81
2021/07/18 11:39:42;;;;;;;;;6.50;4.50;;;;;;;;5011511;28;45410;-81
2021/07/18 11:42:08;;;;;;;;;4.25;4.25;;;;;;;;5005311;28;45550;-81
2021/07/18 11:44:33;;;;;;;;;3.75;3.75;;;;;;;;4995683;28;45487;-79
2021/07/18 11:47:00;;;;;;;;;3.50;3.50;;;;;;;;5011998;28;45901;-79
2021/07/18 11:49:26;;;;;;;;;6.50;6.00;;;;;;;;4995876;28;45479;-79
2021/07/18 11:51:51;;;;;;;;;4.50;4.50;;;;;;;;5010526;28;45507;-79
2021/07/18 11:54:17;;;;;;;;;6.75;5.00;;;;;;;;4991588;28;45419;-79
2021/07/18 11:56:43;;;;;;;;;5.00;5.00;;;;;;;;5008823;28;45317;-78
2021/07/18 11:59:12;;;;;;;;;3.00;3.00;;;;;;;;5013499;28;45815;-78
2021/07/18 12:01:39;;;;;;;;;5.00;4.00;;;;;;;;5006755;28;46209;-77
2021/07/18 12:04:05;;;;;;;;;4.25;4.25;;;;;;;;4994423;28;47024;-79
2021/07/18 12:06:31;;;;;;;;;4.50;3.75;;;;;;;;5010453;28;45419;-80
2021/07/18 12:08:57;;;;;;;;;4.00;4.00;;;;;;;;5010516;28;45298;-78
2021/07/18 12:11:27;;;;;;;;;4.75;4.00;;;;;;;;4999671;28;46321;-79
2021/07/18 12:13:53;;;;;;;;;5.00;5.00;;;;;;;;5012877;28;45498;-79
2021/07/18 12:16:19;;;;;;;;;4.75;3.75;;;;;;;;5010391;28;45392;-79
2021/07/18 12:18:52;;;;;;;;;5.50;4.75;;;;;;;;5010506;28;45509;-79
2021/07/18 12:21:18;;;;;;;;;5.00;4.50;;;;;;;;5008694;28;45678;-79
2021/07/18 12:23:43;;;;;;;;;4.50;4.50;;;;;;;;5008177;28;45739;-79
2021/07/18 12:26:08;;;;;;;;;5.75;5.00;;;;;;;;5015170;28;45348;-80
2021/07/18 12:28:34;;;;;;;;;5.67;4.00;;;;;;;;5009189;28;45315;-80
2021/07/18 12:31:06;;;;;;;;;5.00;4.25;;;;;;;;5010091;28;46043;-80
2021/07/18 12:33:31;;;;;;;;;5.00;5.00;;;;;;;;5011399;28;45385;-80
2021/07/18 12:36:00;;;;;;;;;5.25;4.00;;;;;;;;5006716;28;45510;-80
2021/07/18 12:38:26;;;;;;;;;4.25;4.25;;;;;;;;5011246;28;45416;-79
2021/07/18 12:40:51;;;;;;;;;4.50;3.75;;;;;;;;4993755;28;47048;-79
2021/07/18 12:43:16;;;;;;;;;6.50;4.75;;;;;;;;5000658;28;45386;-78
2021/07/18 12:45:41;;;;;;;;;4.50;4.50;;;;;;;;5002497;28;45754;-80
2021/07/18 12:48:10;;;;;;;;;4.00;4.00;;;;;;;;5005755;28;45455;-81
2021/07/18 12:50:36;;;;;;;;;4.50;4.00;;;;;;;;5004399;28;46627;-79
2021/07/18 12:53:06;;;;;;;;;2.75;2.75;;;;;;;;5011677;28;45609;-79
2021/07/18 12:55:32;;;;;;;;;3.50;3.50;;;;;;;;5009119;28;45340;-79
2021/07/18 12:58:09;;;;;;;;;3.00;3.00;;;;;;;;5010679;28;45687;-79
2021/07/18 13:00:34;;;;;;;;;6.75;3.50;;;;;;;;5005654;28;46302;-79
2021/07/18 13:03:08;;;;;;;;;3.00;3.00;;;;;;;;5009386;28;45557;-79
2021/07/18 13:05:34;;;;;;;;;3.00;3.00;;;;;;;;5011805;28;45642;-80
2021/07/18 13:07:59;;;;;;;;;3.67;3.67;;;;;;;;5013623;28;45364;-79
2021/07/18 13:10:24;;;;;;;;;3.00;3.00;;;;;;;;5011411;28;46184;-79
2021/07/18 13:13:00;;;;;;;;;3.33;3.33;;;;;;;;5011434;28;45316;-79
2021/07/18 13:15:26;;;;;;;;;6.00;4.50;;;;;;;;5005383;28;45430;-79
2021/07/18 13:17:55;;;;;;;;;5.50;4.00;;;;;;;;4991779;28;46012;-79
2021/07/18 13:20:21;;;;;;;;;5.25;4.00;;;;;;;;5011173;28;46314;-79
2021/07/18 13:22:47;;;;;;;;;5.50;4.25;;;;;;;;4995681;28;46102;-80
2021/07/18 13:25:29;;;;;;;;;3.00;3.00;;;;;;;;5007250;28;45526;-80
2021/07/18 13:27:55;;;;;;;;;4.00;4.00;;;;;;;;5005623;28;45494;-80
2021/07/18 13:30:23;;;;;;;;;6.00;4.00;;;;;;;;5003024;28;45697;-80
2021/07/18 13:32:49;;;;;;;;;2.50;2.00;;;;;;;;5012873;28;45468;-80
2021/07/18 13:35:16;;;;;;;;;2.00;2.00;;;;;;;;5004318;28;45440;-80
2021/07/18 13:37:44;;;;;;;;;6.00;4.00;;;;;;;;5014424;28;45425;-80
2021/07/18 13:40:23;;;;;;;;;3.50;3.00;;;;;;;;5010567;28;47615;-82
2021/07/18 13:42:48;;;;;;;;;3.25;3.25;;;;;;;;4984604;28;45619;-80
2021/07/18 13:45:14;;;;;;;;;2.25;2.25;;;;;;;;5013114;28;45543;-80
2021/07/18 13:47:39;;;;;;;;;4.00;4.00;;;;;;;;5012584;28;45466;-80
2021/07/18 13:50:04;;;;;;;;;3.67;3.67;;;;;;;;5014505;28;45467;-79
2021/07/18 13:52:30;;;;;;;;;3.25;3.25;;;;;;;;4995145;28;45591;-80
2021/07/18 13:54:55;;;;;;;;;4.00;4.00;;;;;;;;5012126;28;45409;-79
2021/07/18 13:57:22;;;;;;;;;3.75;3.00;;;;;;;;5012222;28;45954;-78
2021/07/18 13:59:47;;;;;;;;;5.25;2.75;;;;;;;;5012093;28;45665;-79
2021/07/18 14:02:12;;;;;;;;;3.25;3.25;;;;;;;;5015557;28;45779;-79
2021/07/18 14:04:37;;;;;;;;;3.25;2.25;;;;;;;;5012829;28;45438;-79
2021/07/18 14:07:03;;;;;;;;;4.75;4.75;;;;;;;;5014311;28;45553;-79
2021/07/18 14:09:29;;;;;;;;;2.75;2.75;;;;;;;;5012999;28;45911;-79
2021/07/18 14:11:55;;;;;;;;;4.75;3.00;;;;;;;;5014336;28;45713;-79
2021/07/18 14:14:20;;;;;;;;;3.50;3.50;;;;;;;;4996503;28;45526;-79
2021/07/18 14:16:45;;;;;;;;;5.25;3.50;;;;;;;;5010528;28;45340;-79
2021/07/18 14:19:11;;;;;;;;;4.00;4.00;;;;;;;;5012552;28;46871;-78
2021/07/18 14:21:36;;;;;;;;;6.75;4.75;;;;;;;;5012956;28;45613;-78
2021/07/18 14:24:03;;;;;;;;;6.50;4.00;;;;;;;;5013099;28;45289;-78
2021/07/18 14:26:28;;;;;;;;;4.25;2.75;;;;;;;;5013383;28;45366;-78
2021/07/18 14:28:53;;;;;;;;;6.25;4.25;;;;;;;;5014678;28;45454;-78
2021/07/18 14:31:19;;;;;;;;;6.75;3.50;;;;;;;;5011986;28;45562;-78
2021/07/18 14:33:44;;;;;;;;;4.75;4.75;;;;;;;;5012593;28;45396;-78
2021/07/18 14:36:09;;;;;;;;;6.25;5.00;;;;;;;;4994891;28;45358;-78
2021/07/18 14:38:35;;;;;;;;;5.75;4.50;;;;;;;;5014000;28;45888;-78
2021/07/18 14:41:00;;;;;;;;;4.00;4.00;;;;;;;;5014754;28;45333;-78